createdAt,value
2022-12-31T00:01:27.285Z,32.48
2022-12-31T00:03:54.802Z,32.55
2022-12-31T00:06:27.102Z,32.66
2022-12-31T00:08:54.754Z,32.31
2022-12-31T00:11:22.799Z,32.56
2022-12-31T00:13:50.336Z,32.34
2022-12-31T00:16:25.605Z,32.12
2022-12-31T00:18:54.754Z,32.04
2022-12-31T00:21:22.439Z,32.08
2022-12-31T00:23:49.246Z,32.22
2022-12-31T00:26:18.594Z,32.01
2022-12-31T00:28:45.428Z,32.10
2022-12-31T00:31:18.508Z,32.26
2022-12-31T00:33:45.675Z,32.01
2022-12-31T00:36:22.444Z,31.96
2022-12-31T00:38:50.783Z,31.81
2022-12-31T00:41:18.649Z,32.08
2022-12-31T00:43:45.823Z,32.06
2022-12-31T00:46:13.050Z,31.81
2022-12-31T00:48:39.972Z,32.20
2022-12-31T00:51:08.992Z,31.67
2022-12-31T00:53:36.030Z,32.06
2022-12-31T00:56:08.206Z,31.92
2022-12-31T00:58:35.264Z,31.80
2022-12-31T01:01:16.805Z,31.80
2022-12-31T01:03:44.003Z,31.77
2022-12-31T01:06:11.176Z,31.66
2022-12-31T01:08:38.282Z,31.74
2022-12-31T01:11:24.159Z,31.99
2022-12-31T01:14:01.043Z,31.85
2022-12-31T01:16:49.300Z,31.55
2022-12-31T01:19:19.691Z,31.93
2022-12-31T01:21:49.519Z,31.51
2022-12-31T01:24:16.963Z,31.77
2022-12-31T01:26:44.259Z,31.76
2022-12-31T01:29:12.041Z,31.66
2022-12-31T01:31:38.948Z,31.67
2022-12-31T01:34:07.175Z,31.65
2022-12-31T01:36:35.705Z,31.59
2022-12-31T01:39:05.468Z,31.42
2022-12-31T01:41:35.507Z,31.66
2022-12-31T01:44:14.033Z,31.49
2022-12-31T01:46:48.092Z,31.26
2022-12-31T01:49:24.098Z,31.35
2022-12-31T01:52:00.434Z,31.37
2022-12-31T01:54:29.190Z,31.25
2022-12-31T01:56:56.643Z,31.23
2022-12-31T01:59:28.339Z,31.30
2022-12-31T02:01:55.519Z,31.48
2022-12-31T02:04:25.162Z,31.38
2022-12-31T02:07:01.594Z,31.48
2022-12-31T02:09:29.528Z,31.48
2022-12-31T02:11:56.128Z,31.07
2022-12-31T02:14:29.012Z,31.19
2022-12-31T02:17:15.889Z,31.34
2022-12-31T02:19:59.937Z,31.27
2022-12-31T02:22:47.646Z,31.06
2022-12-31T02:25:17.162Z,31.06
2022-12-31T02:28:14.885Z,31.03
2022-12-31T02:33:27.908Z,31.19
2022-12-31T02:36:08.490Z,31.22
2022-12-31T02:38:39.334Z,30.97
2022-12-31T02:41:06.317Z,31.11
2022-12-31T02:43:32.850Z,30.98
2022-12-31T02:46:18.920Z,31.18
2022-12-31T02:48:52.638Z,30.93
2022-12-31T02:51:25.682Z,31.21
2022-12-31T02:54:12.358Z,30.80
2022-12-31T02:56:57.370Z,31.19
2022-12-31T02:59:52.806Z,30.93
2022-12-31T03:02:23.384Z,30.97
2022-12-31T03:04:55.832Z,30.72
2022-12-31T03:07:26.904Z,31.04
2022-12-31T03:09:54.556Z,31.03
2022-12-31T03:12:42.453Z,31.01
2022-12-31T03:15:20.457Z,31.02
2022-12-31T03:17:54.140Z,30.82
2022-12-31T03:20:42.092Z,31.02
2022-12-31T03:23:12.788Z,30.71
2022-12-31T03:25:39.648Z,30.90
2022-12-31T03:28:12.749Z,31.05
2022-12-31T03:30:42.303Z,30.58
2022-12-31T03:33:09.421Z,30.97
2022-12-31T03:35:37.471Z,30.74
2022-12-31T03:38:04.957Z,30.75
2022-12-31T03:40:32.853Z,30.68
2022-12-31T03:42:59.628Z,30.67
2022-12-31T03:45:26.674Z,30.50
2022-12-31T03:47:53.455Z,30.37
2022-12-31T03:50:20.557Z,30.42
2022-12-31T03:52:47.518Z,30.71
2022-12-31T03:55:15.030Z,30.67
2022-12-31T03:57:41.827Z,30.40
2022-12-31T04:00:12.882Z,30.80
2022-12-31T04:02:39.744Z,30.71
2022-12-31T04:05:07.659Z,30.53
2022-12-31T04:07:34.286Z,30.77
2022-12-31T04:10:00.972Z,30.43
2022-12-31T04:12:27.681Z,30.60
2022-12-31T04:14:54.188Z,30.63
2022-12-31T04:17:21.209Z,30.34
2022-12-31T04:19:47.853Z,30.16
2022-12-31T04:22:14.593Z,30.48
2022-12-31T04:24:43.071Z,30.69
2022-12-31T04:27:13.675Z,30.46
2022-12-31T04:29:40.324Z,30.37
2022-12-31T04:32:10.052Z,30.07
2022-12-31T04:34:36.797Z,30.15
2022-12-31T04:37:03.655Z,30.25
2022-12-31T04:39:30.374Z,30.63
2022-12-31T04:41:57.209Z,30.13
2022-12-31T04:44:23.878Z,30.44
2022-12-31T04:46:51.487Z,30.46
2022-12-31T04:49:18.330Z,30.25
2022-12-31T04:51:44.868Z,30.25
2022-12-31T04:54:11.586Z,30.19
2022-12-31T04:56:38.269Z,30.16
2022-12-31T04:59:05.721Z,30.19
2022-12-31T05:01:33.343Z,30.35
2022-12-31T05:04:00.359Z,30.33
2022-12-31T05:06:27.023Z,30.23
2022-12-31T05:08:53.667Z,30.19
2022-12-31T05:11:20.398Z,30.24
2022-12-31T05:13:47.092Z,29.94
2022-12-31T05:16:13.798Z,30.29
2022-12-31T05:18:40.535Z,30.25
2022-12-31T05:21:07.349Z,30.04
2022-12-31T05:23:34.164Z,29.96
2022-12-31T05:26:01.973Z,29.99
2022-12-31T05:28:28.795Z,29.97
2022-12-31T05:30:56.136Z,30.39
2022-12-31T05:33:23.194Z,29.98
2022-12-31T05:35:50.226Z,30.31
2022-12-31T05:38:16.910Z,30.33
2022-12-31T05:40:43.629Z,30.34
2022-12-31T05:43:10.302Z,30.04
2022-12-31T05:45:37.112Z,30.14
2022-12-31T05:48:04.286Z,29.91
2022-12-31T05:50:30.943Z,29.88
2022-12-31T05:53:03.985Z,30.12
2022-12-31T05:55:30.709Z,30.30
2022-12-31T05:57:57.369Z,29.89
2022-12-31T06:00:24.063Z,30.12
2022-12-31T06:02:50.707Z,30.05
2022-12-31T06:05:22.474Z,30.05
2022-12-31T06:07:52.437Z,29.93
2022-12-31T06:10:22.078Z,30.07
2022-12-31T06:12:48.764Z,29.92
2022-12-31T06:15:15.507Z,29.99
2022-12-31T06:17:42.168Z,30.29
2022-12-31T06:20:12.817Z,30.06
2022-12-31T06:22:40.181Z,30.29
2022-12-31T06:25:07.043Z,30.28
2022-12-31T06:27:33.725Z,30.00
2022-12-31T06:30:00.293Z,29.91
2022-12-31T06:32:26.933Z,29.95
2022-12-31T06:34:53.533Z,30.06
2022-12-31T06:37:20.226Z,30.11
2022-12-31T06:39:46.713Z,30.02
2022-12-31T06:42:14.344Z,30.33
2022-12-31T06:44:40.996Z,30.13
2022-12-31T06:47:07.678Z,30.22
2022-12-31T06:49:34.189Z,30.29
2022-12-31T06:52:00.884Z,30.22
2022-12-31T06:54:27.542Z,30.38
2022-12-31T06:56:54.452Z,30.06
2022-12-31T06:59:29.552Z,30.04
2022-12-31T07:02:01.534Z,30.00
2022-12-31T07:04:52.174Z,30.04
2022-12-31T07:07:56.183Z,30.40
2022-12-31T07:11:01.560Z,30.25
2022-12-31T07:13:43.738Z,30.05
2022-12-31T07:16:57.711Z,30.08
2022-12-31T07:19:38.295Z,29.90
2022-12-31T07:22:05.615Z,30.02
2022-12-31T07:24:32.470Z,30.19
2022-12-31T07:27:30.627Z,30.13
2022-12-31T07:30:03.399Z,30.30
2022-12-31T07:33:04.445Z,30.10
2022-12-31T07:35:41.684Z,30.17
2022-12-31T07:38:15.157Z,30.09
2022-12-31T07:40:51.727Z,30.19
2022-12-31T07:43:27.327Z,30.32
2022-12-31T07:46:05.509Z,30.24
2022-12-31T07:48:32.422Z,30.15
2022-12-31T07:51:02.053Z,30.08
2022-12-31T07:53:28.947Z,30.15
2022-12-31T07:56:01.763Z,30.00
2022-12-31T07:58:28.305Z,30.17
2022-12-31T08:00:58.340Z,30.22
2022-12-31T08:03:43.794Z,29.88
2022-12-31T08:06:29.171Z,29.94
2022-12-31T08:09:08.155Z,30.29
2022-12-31T08:11:46.926Z,30.04
2022-12-31T08:14:16.830Z,30.24
2022-12-31T08:16:43.971Z,29.99
2022-12-31T08:19:32.319Z,29.88
2022-12-31T08:22:16.170Z,30.13
2022-12-31T08:24:59.557Z,29.96
2022-12-31T08:27:40.437Z,29.91
2022-12-31T08:30:07.255Z,30.22
2022-12-31T08:32:56.102Z,29.97
2022-12-31T08:35:48.801Z,30.21
2022-12-31T08:38:58.341Z,30.22
2022-12-31T08:41:44.255Z,30.03
2022-12-31T08:44:35.091Z,30.16
2022-12-31T08:47:02.575Z,30.20
2022-12-31T08:49:32.188Z,30.03
2022-12-31T08:52:00.800Z,30.31
2022-12-31T08:54:28.513Z,30.36
2022-12-31T08:57:09.602Z,30.32
2022-12-31T08:59:53.442Z,30.53
2022-12-31T09:02:32.321Z,30.91
2022-12-31T09:05:20.007Z,30.81
2022-12-31T09:07:58.535Z,30.90
2022-12-31T09:10:54.096Z,30.97
2022-12-31T09:13:42.544Z,30.71
2022-12-31T09:16:12.396Z,30.79
2022-12-31T09:18:42.897Z,30.95
2022-12-31T09:21:14.969Z,31.08
2022-12-31T09:23:43.159Z,30.95
2022-12-31T09:26:18.812Z,30.96
2022-12-31T09:28:59.639Z,31.29
2022-12-31T09:31:59.531Z,30.99
2022-12-31T09:34:49.238Z,30.98
2022-12-31T09:37:22.032Z,30.88
2022-12-31T09:39:49.191Z,31.25
2022-12-31T09:42:54.762Z,31.00
2022-12-31T09:45:28.331Z,31.20
2022-12-31T09:48:13.607Z,31.19
2022-12-31T09:50:54.101Z,30.85
2022-12-31T09:53:56.061Z,30.66
2022-12-31T09:56:44.168Z,30.97
2022-12-31T09:59:34.066Z,30.94
2022-12-31T10:02:15.409Z,30.74
2022-12-31T10:05:21.691Z,30.84
2022-12-31T10:08:09.625Z,30.50
2022-12-31T10:10:53.441Z,30.84
2022-12-31T10:13:28.830Z,30.95
2022-12-31T10:16:14.031Z,31.29
2022-12-31T10:19:05.310Z,31.70
2022-12-31T10:21:37.825Z,31.91
2022-12-31T10:24:30.238Z,32.00
2022-12-31T10:27:16.474Z,31.80
2022-12-31T10:29:47.657Z,31.82
2022-12-31T10:32:34.130Z,31.80
2022-12-31T10:35:38.765Z,31.66
2022-12-31T10:38:08.106Z,31.63
2022-12-31T10:40:53.275Z,31.43
2022-12-31T10:43:57.497Z,31.33
2022-12-31T10:46:45.698Z,31.45
2022-12-31T10:49:18.394Z,31.27
2022-12-31T10:52:22.825Z,31.18
2022-12-31T10:55:05.107Z,30.93
2022-12-31T10:57:47.831Z,30.91
2022-12-31T11:00:22.339Z,30.84
2022-12-31T11:03:23.414Z,30.96
2022-12-31T11:06:21.628Z,31.00
2022-12-31T11:09:04.987Z,31.16
2022-12-31T11:11:45.033Z,31.12
2022-12-31T11:14:20.332Z,31.29
2022-12-31T11:17:12.477Z,31.39
2022-12-31T11:19:54.099Z,31.26
2022-12-31T11:22:29.503Z,31.22
2022-12-31T11:25:16.214Z,31.25
2022-12-31T11:28:10.618Z,31.34
2022-12-31T11:30:55.740Z,31.23
2022-12-31T11:33:44.139Z,31.13
2022-12-31T11:36:30.170Z,31.16
2022-12-31T11:39:30.740Z,31.48
2022-12-31T11:42:19.822Z,31.37
2022-12-31T11:44:59.696Z,31.68
2022-12-31T11:48:20.595Z,31.50
2022-12-31T11:50:58.012Z,32.02
2022-12-31T11:53:43.520Z,32.41
2022-12-31T11:56:18.323Z,32.64
2022-12-31T11:58:53.527Z,32.94
2022-12-31T12:01:25.676Z,33.02
2022-12-31T12:03:52.779Z,33.34
2022-12-31T12:06:28.599Z,33.80
2022-12-31T12:09:15.786Z,33.94
2022-12-31T12:11:43.332Z,34.50
2022-12-31T12:14:28.833Z,34.84
2022-12-31T12:17:04.087Z,34.97
2022-12-31T12:19:33.961Z,34.89
2022-12-31T12:22:14.378Z,34.25
2022-12-31T12:24:53.013Z,33.95
2022-12-31T12:27:23.636Z,33.93
2022-12-31T12:29:50.363Z,33.80
2022-12-31T12:32:20.632Z,33.79
2022-12-31T12:34:49.904Z,33.61
2022-12-31T12:37:34.576Z,33.77
2022-12-31T12:40:21.501Z,33.40
2022-12-31T12:42:52.143Z,33.47
2022-12-31T12:45:20.771Z,33.64
2022-12-31T12:48:01.350Z,33.57
2022-12-31T12:50:45.809Z,33.65
2022-12-31T12:53:18.450Z,33.65
2022-12-31T12:56:02.980Z,33.61
2022-12-31T12:58:52.912Z,34.15
2022-12-31T13:01:38.456Z,34.63
2022-12-31T13:04:37.919Z,35.26
2022-12-31T13:07:32.838Z,35.52
2022-12-31T13:10:36.933Z,35.87
2022-12-31T13:13:25.813Z,36.24
2022-12-31T13:16:20.843Z,36.07
2022-12-31T13:18:59.933Z,36.05
2022-12-31T13:21:44.539Z,35.86
2022-12-31T13:24:14.125Z,35.86
2022-12-31T13:26:55.864Z,35.72
2022-12-31T13:29:27.749Z,35.82
2022-12-31T13:31:57.108Z,35.49
2022-12-31T13:34:34.015Z,35.26
2022-12-31T13:37:06.837Z,35.13
2022-12-31T13:39:40.849Z,34.55
2022-12-31T13:42:21.188Z,34.55
2022-12-31T13:45:04.076Z,34.37
2022-12-31T13:47:37.633Z,34.02
2022-12-31T13:50:17.779Z,33.84
2022-12-31T13:53:00.112Z,33.96
2022-12-31T13:55:38.207Z,33.79
2022-12-31T13:58:40.897Z,34.17
2022-12-31T14:01:34.025Z,34.26
2022-12-31T14:04:33.041Z,34.21
2022-12-31T14:09:24.978Z,34.91
2022-12-31T14:11:51.794Z,34.89
2022-12-31T14:14:34.895Z,35.38
2022-12-31T14:17:17.742Z,35.68
2022-12-31T14:20:06.133Z,35.85
2022-12-31T14:22:38.173Z,35.69
2022-12-31T14:25:09.939Z,35.80
2022-12-31T14:27:43.169Z,36.26
2022-12-31T14:30:22.238Z,36.17
2022-12-31T14:32:54.924Z,35.84
2022-12-31T14:36:14.891Z,35.87
2022-12-31T14:38:52.346Z,35.76
2022-12-31T14:41:46.893Z,35.49
2022-12-31T14:44:32.877Z,35.95
2022-12-31T14:47:12.891Z,35.96
2022-12-31T14:50:06.118Z,35.80
2022-12-31T14:52:37.914Z,36.07
2022-12-31T14:55:14.993Z,36.05
2022-12-31T14:58:26.007Z,36.29
2022-12-31T15:00:41.012Z,36.57
2022-12-31T15:03:14.007Z,36.74
2022-12-31T15:05:55.242Z,36.53
2022-12-31T15:08:27.967Z,36.74
2022-12-31T15:11:03.667Z,36.43
2022-12-31T15:13:56.626Z,36.35
2022-12-31T15:16:37.601Z,36.53
2022-12-31T15:19:19.211Z,36.07
2022-12-31T15:22:23.268Z,36.08
2022-12-31T15:24:50.343Z,36.02
2022-12-31T15:27:45.891Z,36.04
2022-12-31T15:30:39.842Z,35.90
2022-12-31T15:33:20.362Z,36.08
2022-12-31T15:35:53.956Z,35.92
2022-12-31T15:38:33.461Z,35.75
2022-12-31T15:41:00.856Z,35.61
2022-12-31T15:43:49.125Z,35.56
2022-12-31T15:46:42.882Z,35.92
2022-12-31T15:49:23.135Z,35.55
2022-12-31T15:52:07.473Z,35.70
2022-12-31T15:54:45.088Z,35.95
2022-12-31T15:57:19.543Z,36.16
2022-12-31T15:59:46.897Z,36.59
2022-12-31T16:02:24.145Z,36.59
2022-12-31T16:04:51.918Z,37.10
2022-12-31T16:07:18.960Z,37.19
2022-12-31T16:09:52.699Z,37.09
2022-12-31T16:12:25.395Z,37.11
2022-12-31T16:14:58.450Z,37.12
2022-12-31T16:17:28.187Z,36.94
2022-12-31T16:19:56.953Z,36.78
2022-12-31T16:22:29.302Z,36.73
2022-12-31T16:27:52.931Z,36.41
2022-12-31T16:30:22.762Z,36.33
2022-12-31T16:32:50.493Z,36.15
2022-12-31T16:35:24.354Z,36.45
2022-12-31T16:38:30.718Z,36.73
2022-12-31T16:41:16.105Z,36.88
2022-12-31T16:43:44.649Z,37.59
2022-12-31T16:46:15.053Z,37.67
2022-12-31T16:48:46.340Z,37.57
2022-12-31T16:51:21.228Z,37.84
2022-12-31T16:53:49.123Z,38.07
2022-12-31T16:56:24.911Z,38.10
2022-12-31T16:59:00.101Z,37.99
2022-12-31T17:01:30.490Z,37.72
2022-12-31T17:04:04.899Z,37.71
2022-12-31T17:06:33.601Z,37.97
2022-12-31T17:09:30.787Z,37.62
2022-12-31T17:12:14.857Z,37.69
2022-12-31T17:14:50.425Z,37.95
2022-12-31T17:17:25.600Z,37.89
2022-12-31T17:19:58.215Z,37.65
2022-12-31T17:22:34.347Z,38.06
2022-12-31T17:25:07.508Z,37.69
2022-12-31T17:27:36.244Z,38.13
2022-12-31T17:30:35.369Z,37.92
2022-12-31T17:33:03.647Z,37.55
2022-12-31T17:35:32.882Z,37.45
2022-12-31T17:38:18.207Z,36.96
2022-12-31T17:40:51.602Z,37.16
2022-12-31T17:43:23.713Z,37.28
2022-12-31T17:45:52.746Z,37.41
2022-12-31T17:50:54.801Z,36.84
2022-12-31T17:53:21.570Z,36.65
2022-12-31T17:55:53.330Z,36.51
2022-12-31T17:58:48.951Z,36.19
2022-12-31T18:01:18.266Z,36.21
2022-12-31T18:03:45.564Z,36.19
2022-12-31T18:06:16.643Z,35.96
2022-12-31T18:08:44.139Z,36.02
2022-12-31T18:11:18.145Z,35.96
2022-12-31T18:13:45.270Z,36.24
2022-12-31T18:16:11.928Z,36.31
2022-12-31T18:18:40.114Z,36.23
2022-12-31T18:21:24.428Z,36.34
2022-12-31T18:23:51.522Z,36.45
2022-12-31T18:26:23.168Z,36.50
2022-12-31T18:28:50.992Z,36.28
2022-12-31T18:31:22.144Z,36.37
2022-12-31T18:33:49.991Z,36.54
2022-12-31T18:36:18.196Z,36.47
2022-12-31T18:38:44.962Z,36.45
2022-12-31T18:41:24.426Z,36.03
2022-12-31T18:43:51.235Z,36.10
2022-12-31T18:46:21.380Z,35.92
2022-12-31T18:48:48.443Z,35.87
2022-12-31T18:51:17.616Z,35.98
2022-12-31T18:53:45.046Z,35.95
2022-12-31T18:56:13.781Z,36.08
2022-12-31T18:58:41.314Z,35.86
2022-12-31T19:01:27.154Z,35.88
2022-12-31T19:04:01.816Z,35.85
2022-12-31T19:06:29.659Z,36.04
2022-12-31T19:08:56.836Z,35.78
2022-12-31T19:11:23.560Z,35.63
2022-12-31T19:13:50.582Z,35.92
2022-12-31T19:16:17.966Z,35.73
2022-12-31T19:18:45.213Z,35.61
2022-12-31T19:21:19.162Z,35.49
2022-12-31T19:23:46.485Z,35.65
2022-12-31T19:26:18.913Z,35.75
2022-12-31T19:28:46.676Z,36.02
2022-12-31T19:31:13.953Z,35.94
2022-12-31T19:33:42.775Z,36.21
2022-12-31T19:36:16.007Z,36.21
2022-12-31T19:38:43.758Z,36.55
2022-12-31T19:41:19.099Z,37.17
2022-12-31T19:43:47.457Z,37.28
2022-12-31T19:46:16.247Z,37.44
2022-12-31T19:48:43.523Z,37.50
2022-12-31T19:51:12.193Z,37.53
2022-12-31T19:53:39.356Z,37.61
2022-12-31T19:56:06.627Z,37.36
2022-12-31T19:58:33.316Z,37.32
2022-12-31T20:01:03.214Z,37.07
2022-12-31T20:03:32.490Z,37.36
2022-12-31T20:06:08.378Z,37.12
2022-12-31T20:08:37.657Z,37.20
2022-12-31T20:11:24.481Z,37.45
2022-12-31T20:13:52.620Z,37.43
2022-12-31T20:16:21.237Z,37.35
2022-12-31T20:18:48.892Z,37.29
2022-12-31T20:21:24.117Z,37.34
2022-12-31T20:23:52.178Z,36.99
2022-12-31T20:26:20.056Z,37.00
2022-12-31T20:28:47.183Z,37.14
2022-12-31T20:31:20.599Z,37.02
2022-12-31T20:33:47.433Z,36.88
2022-12-31T20:36:16.315Z,36.95
2022-12-31T20:38:44.023Z,36.70
2022-12-31T20:41:13.470Z,36.85
2022-12-31T20:43:44.005Z,36.68
2022-12-31T20:46:15.584Z,36.76
2022-12-31T20:48:43.655Z,36.88
2022-12-31T20:51:10.701Z,36.47
2022-12-31T20:53:37.457Z,36.64
2022-12-31T20:56:08.615Z,36.51
2022-12-31T20:58:35.598Z,36.61
2022-12-31T21:01:06.595Z,36.62
2022-12-31T21:04:04.187Z,36.53
2022-12-31T21:06:23.404Z,36.58
2022-12-31T21:08:50.597Z,36.68
2022-12-31T21:11:36.151Z,36.75
2022-12-31T21:14:02.896Z,36.60
2022-12-31T21:16:29.519Z,36.55
2022-12-31T21:18:56.249Z,36.53
2022-12-31T21:21:23.134Z,36.58
2022-12-31T21:23:50.178Z,36.70
2022-12-31T21:26:19.898Z,36.38
2022-12-31T21:28:46.749Z,36.53
2022-12-31T21:31:14.852Z,36.76
2022-12-31T21:33:46.683Z,36.42
2022-12-31T21:36:13.803Z,36.33
2022-12-31T21:38:40.624Z,36.28
2022-12-31T21:41:09.325Z,36.50
2022-12-31T21:43:36.106Z,36.32
2022-12-31T21:46:05.813Z,36.31
2022-12-31T21:48:33.212Z,36.02
2022-12-31T21:51:13.140Z,35.84
2022-12-31T21:53:40.552Z,35.80
2022-12-31T21:56:09.613Z,35.93
2022-12-31T21:58:38.120Z,35.97
2022-12-31T22:01:24.107Z,35.71
2022-12-31T22:03:51.149Z,35.68
2022-12-31T22:06:20.762Z,35.79
2022-12-31T22:08:55.623Z,35.50
2022-12-31T22:11:25.228Z,35.56
2022-12-31T22:13:52.801Z,35.56
2022-12-31T22:16:26.824Z,35.63
2022-12-31T22:18:55.712Z,35.30
2022-12-31T22:21:24.270Z,35.73
2022-12-31T22:23:56.132Z,35.48
2022-12-31T22:26:26.588Z,35.50
2022-12-31T22:28:54.639Z,35.47
2022-12-31T22:31:26.150Z,35.19
2022-12-31T22:33:53.318Z,35.20
2022-12-31T22:36:22.187Z,35.48
2022-12-31T22:38:50.857Z,35.32
2022-12-31T22:41:20.331Z,35.39
2022-12-31T22:43:49.173Z,35.41
2022-12-31T22:46:21.522Z,35.30
2022-12-31T22:48:48.334Z,35.24
2022-12-31T22:51:16.264Z,35.50
2022-12-31T22:53:43.555Z,35.56
2022-12-31T22:56:13.125Z,35.37
2022-12-31T22:58:41.935Z,35.66
2022-12-31T23:01:19.148Z,35.46
2022-12-31T23:03:47.585Z,36.16
2022-12-31T23:06:14.682Z,35.98
2022-12-31T23:08:41.878Z,36.09
2022-12-31T23:11:11.023Z,36.02
2022-12-31T23:14:01.884Z,36.08
2022-12-31T23:16:48.221Z,35.80
2022-12-31T23:19:34.830Z,36.00
2022-12-31T23:22:20.000Z,35.89
2022-12-31T23:24:47.061Z,36.08
2022-12-31T23:29:27.819Z,36.00
2022-12-31T23:31:54.782Z,36.23
2022-12-31T23:34:24.278Z,36.07
2022-12-31T23:36:50.990Z,36.24
2022-12-31T23:39:17.624Z,36.06
2022-12-31T23:41:44.290Z,35.89
2022-12-31T23:44:14.007Z,36.15
2022-12-31T23:46:40.889Z,35.96
2022-12-31T23:49:07.661Z,36.06
2022-12-31T23:51:36.557Z,35.94
2022-12-31T23:54:06.756Z,35.78
2022-12-31T23:56:33.893Z,35.98
2022-12-31T23:59:01.106Z,36.15
